• Join FlightAware (Why Join?)
  • Login
  • US Flag 
10:10AM EST


 

Airport Tracker/Info


-or-


 

Live Flight TrackerFlight Track Log ✈ CSN3452 ✈ 10-Apr-2013 ✈ ZPLJ / LJG - ZPPP / KMG

Flight Track Log - Related Links

Times and Time Zones

All times are in EDT time to prevent confusion due to time zone crossing. See the CSN3452 flight status page for this flight to view local times or setup timezone preferences in your user account.

Time Position Orientation Groundspeed Altitude Reporting Facility
EDT Latitude Longitude Course Direction KTS MPH feet Rate Location/Type
07:27AM 26.5823 100.4153 123° Southeast  Level Estimated
07:28AM 26.4852 100.5845 123° Southeast  Level Estimated
07:29AM 26.3879 100.7533 123° Southeast  Level Estimated
07:30AM 26.2904 100.9219 123° Southeast  Level Estimated
07:31AM 26.1927 101.0902 123° Southeast  Level Estimated
07:32AM 26.0948 101.2583 123° Southeast  Level Estimated
07:33AM 25.9967 101.4260 123° Southeast  Level Estimated
07:34AM 25.8985 101.5935 123° Southeast  Level Estimated
07:35AM 25.8000 101.7607 123° Southeast  Level Estimated
07:36AM 25.7014 101.9276 123° Southeast  Level Estimated
07:37AM 25.6025 102.0942 123° Southeast  Level Estimated
07:38AM 25.5035 102.2606 123° Southeast  Level Estimated
07:39AM 25.4043 102.4267 123° Southeast  Level Estimated
07:40AM 25.3049 102.5925 124° Southeast  Level Estimated
07:41AM 25.2053 102.7580 124° Southeast  Level Estimated
07:42AM 25.1055 102.9233 124° Southeast  Level Estimated
07:43AM 25.1019 102.9292 124° Southeast  Level Estimated
07:44AM 25.1019 102.9292 326° Northwest  Level Estimated
07:45AM 25.1019 102.9292 326° Northwest  Level Estimated
07:46AM 25.1019 102.9292 326° Northwest  Level Estimated
07:47AM 25.1019 102.9292 326° Northwest  Level Estimated
07:48AM 25.1019 102.9292 326° Northwest  Level Estimated
07:49AM 25.1019 102.9292 326° Northwest  Level Estimated
07:50AM 25.1019 102.9292 326° Northwest  Level Estimated
07:51AM 25.1019 102.9292 326° Northwest  Level Estimated
07:52AM 25.1019 102.9292 326° Northwest  Level Estimated
07:53AM 25.1019 102.9292 326° Northwest  Level Estimated
07:54AM 25.1019 102.9292 326° Northwest  Level Estimated
07:55AM 25.1019 102.9292 326° Northwest  Level Estimated
07:56AM 25.1019 102.9292 326° Northwest  Level Estimated
07:57AM 25.1019 102.9292 326° Northwest  Level Estimated
07:58AM 25.1019 102.9292 326° Northwest  Level Estimated
07:59AM 25.1019 102.9292 326° Northwest  Level Estimated
08:00AM 25.1019 102.9292 326° Northwest  Level Estimated